createdAt,value
2022-08-18T00:01:05.682Z,4.47
2022-08-18T00:03:56.064Z,4.80
2022-08-18T00:06:20.003Z,4.20
2022-08-18T00:08:46.739Z,4.30
2022-08-18T00:11:13.453Z,4.77
2022-08-18T00:13:40.169Z,4.23
2022-08-18T00:16:07.122Z,4.50
2022-08-18T00:18:33.843Z,4.80
2022-08-18T00:21:02.191Z,4.40
2022-08-18T00:23:31.199Z,4.70
2022-08-18T00:25:59.475Z,4.40
2022-08-18T00:28:26.478Z,4.10
2022-08-18T00:30:53.947Z,4.40
2022-08-18T00:33:21.576Z,3.87
2022-08-18T00:35:48.619Z,4.43
2022-08-18T00:38:24.275Z,4.10
2022-08-18T00:40:53.749Z,4.27
2022-08-18T00:43:47.966Z,3.90
2022-08-18T00:46:18.132Z,4.40
2022-08-18T00:48:48.733Z,4.20
2022-08-18T00:51:21.274Z,3.90
2022-08-18T00:53:58.411Z,4.37
2022-08-18T00:56:35.560Z,4.03
2022-08-18T00:59:21.154Z,3.97
2022-08-18T01:01:50.388Z,4.13
2022-08-18T01:04:38.957Z,4.30
2022-08-18T01:07:16.148Z,4.23
2022-08-18T01:09:42.864Z,4.47
2022-08-18T01:12:20.808Z,4.33
2022-08-18T01:14:58.352Z,4.70
2022-08-18T01:17:45.794Z,4.70
2022-08-18T01:20:37.751Z,5.10
2022-08-18T01:23:13.097Z,5.27
2022-08-18T01:26:00.159Z,4.50
2022-08-18T01:28:28.842Z,5.37
2022-08-18T01:30:58.364Z,5.53
2022-08-18T01:33:30.276Z,5.20
2022-08-18T01:35:57.387Z,4.90
2022-08-18T01:38:24.977Z,5.47
2022-08-18T01:41:24.731Z,5.17
2022-08-18T01:43:39.341Z,5.13
2022-08-18T01:46:06.741Z,4.90
2022-08-18T01:48:35.727Z,5.07
2022-08-18T01:51:09.583Z,5.90
2022-08-18T01:53:37.909Z,5.77
2022-08-18T01:56:05.716Z,5.67
2022-08-18T01:58:34.004Z,5.50
2022-08-18T02:01:02.022Z,6.10
2022-08-18T02:03:34.852Z,5.63
2022-08-18T02:06:04.990Z,5.93
2022-08-18T02:08:31.776Z,5.80
2022-08-18T02:11:00.192Z,6.27
2022-08-18T02:13:27.093Z,6.00
2022-08-18T02:15:53.804Z,5.87
2022-08-18T02:18:41.534Z,6.30
2022-08-18T02:21:19.038Z,7.13
2022-08-18T02:23:52.938Z,6.67
2022-08-18T02:26:21.479Z,6.50
2022-08-18T02:28:48.161Z,6.03
2022-08-18T02:31:18.747Z,6.60
2022-08-18T02:33:51.969Z,6.60
2022-08-18T02:36:20.770Z,7.30
2022-08-18T02:38:54.789Z,6.17
2022-08-18T02:41:29.357Z,6.80
2022-08-18T02:43:57.520Z,7.60
2022-08-18T02:46:25.047Z,7.40
2022-08-18T02:48:57.444Z,6.40
2022-08-18T02:51:26.005Z,7.30
2022-08-18T02:53:53.876Z,7.63
2022-08-18T02:56:40.019Z,8.03
2022-08-18T02:59:12.135Z,8.10
2022-08-18T03:01:42.421Z,7.80
2022-08-18T03:04:11.598Z,8.47
2022-08-18T03:06:39.380Z,7.77
2022-08-18T03:09:07.983Z,8.70
2022-08-18T03:11:35.791Z,7.83
2022-08-18T03:14:05.267Z,7.63
2022-08-18T03:16:33.050Z,7.60
2022-08-18T03:19:01.520Z,7.63
2022-08-18T03:21:31.468Z,7.90
2022-08-18T03:24:00.985Z,8.20
2022-08-18T03:26:30.153Z,8.43
2022-08-18T03:28:59.935Z,8.70
2022-08-18T03:31:29.340Z,9.07
2022-08-18T03:33:59.699Z,7.60
2022-08-18T03:36:31.869Z,8.60
2022-08-18T03:39:01.676Z,8.07
2022-08-18T03:41:44.525Z,8.77
2022-08-18T03:44:15.780Z,8.93
2022-08-18T03:46:44.643Z,9.70
2022-08-18T03:49:12.445Z,8.73
2022-08-18T03:51:43.601Z,9.47
2022-08-18T03:54:13.123Z,9.67
2022-08-18T03:56:41.170Z,8.67
2022-08-18T03:59:12.940Z,7.90
2022-08-18T04:01:41.996Z,8.53
2022-08-18T04:04:16.267Z,9.67
2022-08-18T04:06:53.893Z,9.23
2022-08-18T04:09:22.451Z,8.33
2022-08-18T04:11:49.526Z,9.13
2022-08-18T04:14:19.371Z,8.87
2022-08-18T04:16:48.062Z,9.00
2022-08-18T04:19:26.960Z,9.23
2022-08-18T04:21:57.259Z,10.70
2022-08-18T04:24:25.984Z,9.73
2022-08-18T04:26:53.452Z,10.60
2022-08-18T04:29:23.661Z,9.40
2022-08-18T04:31:51.852Z,9.67
2022-08-18T04:34:20.597Z,10.23
2022-08-18T04:36:47.577Z,10.87
2022-08-18T04:39:14.392Z,10.80
2022-08-18T04:41:44.000Z,10.97
2022-08-18T04:44:12.441Z,10.97
2022-08-18T04:46:42.760Z,11.10
2022-08-18T04:49:11.936Z,11.67
2022-08-18T04:52:37.159Z,11.73
2022-08-18T04:54:30.478Z,10.87
2022-08-18T04:56:57.189Z,11.03
2022-08-18T04:59:24.944Z,10.80
2022-08-18T05:01:51.659Z,11.17
2022-08-18T05:04:18.421Z,11.33
2022-08-18T05:06:45.648Z,12.47
2022-08-18T05:09:16.917Z,11.53
2022-08-18T05:11:50.638Z,11.07
2022-08-18T05:14:18.554Z,11.27
2022-08-18T05:16:48.790Z,12.40
2022-08-18T05:19:21.871Z,12.50
2022-08-18T05:21:51.471Z,12.43
2022-08-18T05:24:20.721Z,12.27
2022-08-18T05:26:48.921Z,12.27
2022-08-18T05:29:19.036Z,13.13
2022-08-18T05:31:48.240Z,13.67
2022-08-18T05:34:16.266Z,15.10
2022-08-18T05:36:49.189Z,13.20
2022-08-18T05:39:21.801Z,14.83
2022-08-18T05:41:58.258Z,14.60
2022-08-18T05:44:28.424Z,14.40
2022-08-18T05:47:00.677Z,15.03
2022-08-18T05:49:27.990Z,14.40
2022-08-18T05:52:00.144Z,14.83
2022-08-18T05:54:59.251Z,14.40
2022-08-18T05:57:30.846Z,13.63
2022-08-18T05:59:57.909Z,13.33
2022-08-18T06:02:35.331Z,12.43
2022-08-18T06:05:20.143Z,11.57
2022-08-18T06:07:56.985Z,12.40
2022-08-18T06:10:24.051Z,10.80
2022-08-18T06:13:00.717Z,10.10
2022-08-18T06:15:59.810Z,10.60
2022-08-18T06:18:43.073Z,11.57
2022-08-18T06:21:38.943Z,10.40
2022-08-18T06:24:27.520Z,10.63
2022-08-18T06:27:23.360Z,11.83
2022-08-18T06:30:05.407Z,11.77
2022-08-18T06:32:34.863Z,12.77
2022-08-18T06:35:01.562Z,12.87
2022-08-18T06:37:59.029Z,12.23
2022-08-18T06:40:26.155Z,12.53
2022-08-18T06:42:53.108Z,12.17
2022-08-18T06:45:34.043Z,12.03
2022-08-18T06:48:15.926Z,12.70
2022-08-18T06:50:50.858Z,11.90
2022-08-18T06:53:26.745Z,11.47
2022-08-18T06:55:55.409Z,11.40
2022-08-18T06:58:30.285Z,12.23
2022-08-18T07:01:02.400Z,11.93
2022-08-18T07:03:46.174Z,11.87
2022-08-18T07:06:22.135Z,10.93
2022-08-18T07:08:51.827Z,10.77
2022-08-18T07:11:34.109Z,10.43
2022-08-18T07:14:25.472Z,10.23
2022-08-18T07:17:07.574Z,9.53
2022-08-18T07:19:34.377Z,9.33
2022-08-18T07:22:09.002Z,9.27
2022-08-18T07:24:40.054Z,10.00
2022-08-18T07:27:28.988Z,10.43
2022-08-18T07:30:31.085Z,10.40
2022-08-18T07:33:24.730Z,11.33
2022-08-18T07:36:03.349Z,11.17
2022-08-18T07:38:43.200Z,10.00
2022-08-18T07:41:22.284Z,12.23
2022-08-18T07:43:51.164Z,9.53
2022-08-18T07:46:23.650Z,10.53
2022-08-18T07:48:50.882Z,11.03
2022-08-18T07:51:19.421Z,11.40
2022-08-18T07:54:05.079Z,12.60
2022-08-18T07:56:50.258Z,13.33
2022-08-18T07:59:40.019Z,11.87
2022-08-18T08:02:12.632Z,12.87
2022-08-18T08:04:49.537Z,11.97
2022-08-18T08:07:30.884Z,12.73
2022-08-18T08:10:24.872Z,11.80
2022-08-18T08:13:36.889Z,11.87
2022-08-18T08:16:40.795Z,13.17
2022-08-18T08:19:16.538Z,12.53
2022-08-18T08:22:04.074Z,12.40
2022-08-18T08:24:33.843Z,14.23
2022-08-18T08:27:18.547Z,14.17
2022-08-18T08:30:10.854Z,14.33
2022-08-18T08:32:54.303Z,13.80
2022-08-18T08:35:49.100Z,13.40
2022-08-18T08:38:42.693Z,14.57
2022-08-18T08:41:25.702Z,15.13
2022-08-18T08:44:07.410Z,16.83
2022-08-18T08:46:43.361Z,18.40
2022-08-18T08:49:23.316Z,17.47
2022-08-18T08:51:57.845Z,18.43
2022-08-18T08:54:39.313Z,17.27
2022-08-18T08:57:08.955Z,18.67
2022-08-18T08:59:37.780Z,19.57
2022-08-18T09:02:46.809Z,21.70
2022-08-18T09:05:18.611Z,21.47
2022-08-18T09:08:24.398Z,20.40
2022-08-18T09:11:09.694Z,22.40
2022-08-18T09:13:55.145Z,22.03
2022-08-18T09:17:06.492Z,21.07
2022-08-18T09:19:45.409Z,18.70
2022-08-18T09:22:14.981Z,20.40
2022-08-18T09:24:51.078Z,19.03
2022-08-18T09:28:09.801Z,19.73
2022-08-18T09:30:42.985Z,20.27
2022-08-18T09:33:40.644Z,18.70
2022-08-18T09:36:52.441Z,19.60
2022-08-18T09:39:56.979Z,17.73
2022-08-18T09:43:09.521Z,17.80
2022-08-18T09:45:47.368Z,15.57
2022-08-18T09:54:12.295Z,16.63
2022-08-18T09:56:54.191Z,12.45
2022-08-18T09:59:35.029Z,16.35
2022-08-18T10:02:06.693Z,15.52
2022-08-18T10:04:51.513Z,13.98
2022-08-18T10:07:18.258Z,14.93
2022-08-18T10:11:01.027Z,14.73
2022-08-18T10:13:38.649Z,14.52
2022-08-18T10:16:31.165Z,18.10
2022-08-18T10:22:11.028Z,18.10
2022-08-18T10:24:53.963Z,18.40
2022-08-18T10:27:45.602Z,18.23
2022-08-18T10:30:57.462Z,17.53
2022-08-18T10:33:56.308Z,16.13
2022-08-18T10:36:40.109Z,17.67
2022-08-18T10:39:13.199Z,13.90
2022-08-18T10:41:54.307Z,12.77
2022-08-18T10:47:24.843Z,15.63
2022-08-18T10:49:53.162Z,12.83
2022-08-18T10:53:24.376Z,13.70
2022-08-18T10:55:53.669Z,14.07
2022-08-18T10:58:54.626Z,18.20
2022-08-18T11:01:59.450Z,16.50
2022-08-18T11:04:47.419Z,17.27
2022-08-18T11:07:30.894Z,18.40
2022-08-18T11:10:58.190Z,17.10
2022-08-18T11:13:31.358Z,18.10
2022-08-18T11:16:10.168Z,19.33
2022-08-18T11:18:45.702Z,14.50
2022-08-18T11:21:42.590Z,15.27
2022-08-18T11:24:15.862Z,16.73
2022-08-18T11:26:53.145Z,16.20
2022-08-18T11:29:29.259Z,18.73
2022-08-18T11:32:12.034Z,17.67
2022-08-18T11:34:52.899Z,19.17
2022-08-18T11:46:30.459Z,16.63
2022-08-18T11:49:00.745Z,15.57
2022-08-18T11:51:32.206Z,14.20
2022-08-18T11:54:12.964Z,14.20
2022-08-18T11:56:39.807Z,15.40
2022-08-18T11:59:54.705Z,14.03
2022-08-18T12:02:25.888Z,18.63
2022-08-18T12:05:03.267Z,18.00
2022-08-18T12:07:36.194Z,16.83
2022-08-18T12:10:26.129Z,18.97
2022-08-18T12:12:57.533Z,18.47
2022-08-18T12:18:28.890Z,16.23
2022-08-18T12:23:52.320Z,13.93
2022-08-18T12:26:38.199Z,18.47
2022-08-18T12:29:08.799Z,14.73
2022-08-18T12:31:42.755Z,16.10
2022-08-18T12:34:24.888Z,14.57
2022-08-18T12:36:56.872Z,16.70
2022-08-18T12:39:24.447Z,16.53
2022-08-18T12:41:51.305Z,16.33
2022-08-18T12:44:20.135Z,13.93
2022-08-18T12:46:47.614Z,14.27
2022-08-18T12:49:22.198Z,14.23
2022-08-18T12:51:50.450Z,14.03
2022-08-18T12:54:18.642Z,12.80
2022-08-18T12:56:51.615Z,13.10
2022-08-18T12:59:18.948Z,13.23
2022-08-18T13:01:46.433Z,14.33
2022-08-18T13:04:14.280Z,12.77
2022-08-18T13:06:59.453Z,13.40
2022-08-18T13:09:35.660Z,11.10
2022-08-18T13:12:17.212Z,11.90
2022-08-18T13:14:45.295Z,13.70
2022-08-18T13:17:29.627Z,11.07
2022-08-18T13:20:13.762Z,11.37
2022-08-18T13:22:41.365Z,11.90
2022-08-18T13:25:11.703Z,13.35
2022-08-18T13:27:39.281Z,12.20
2022-08-18T13:30:16.623Z,11.27
2022-08-18T13:32:58.842Z,10.95
2022-08-18T13:35:30.123Z,10.80
2022-08-18T13:38:14.271Z,10.30
2022-08-18T13:40:47.175Z,12.13
2022-08-18T13:43:15.686Z,10.75
2022-08-18T13:45:47.499Z,11.63
2022-08-18T13:48:19.453Z,13.30
2022-08-18T13:50:46.452Z,11.68
2022-08-18T13:53:19.634Z,12.63
2022-08-18T13:55:47.685Z,12.70
2022-08-18T13:58:20.238Z,13.00
2022-08-18T14:00:52.407Z,13.80
2022-08-18T14:03:31.039Z,12.18
2022-08-18T14:06:13.150Z,10.38
2022-08-18T14:08:41.235Z,10.55
2022-08-18T14:11:08.890Z,10.93
2022-08-18T14:13:38.085Z,12.02
2022-08-18T14:16:05.436Z,11.25
2022-08-18T14:18:32.395Z,11.20
2022-08-18T14:21:22.932Z,11.70
2022-08-18T14:24:10.645Z,12.35
2022-08-18T14:26:50.908Z,10.45
2022-08-18T14:29:46.337Z,10.88
2022-08-18T14:32:07.199Z,10.50
2022-08-18T14:34:34.527Z,10.25
2022-08-18T14:37:02.825Z,8.20
2022-08-18T14:39:29.680Z,7.82
2022-08-18T14:41:58.453Z,8.02
2022-08-18T14:44:31.840Z,8.05
2022-08-18T14:46:59.195Z,7.47
2022-08-18T14:49:29.575Z,6.97
2022-08-18T14:52:00.611Z,7.15
2022-08-18T14:54:30.085Z,7.50
2022-08-18T14:57:00.811Z,8.10
2022-08-18T14:59:30.727Z,7.35
2022-08-18T15:02:01.470Z,7.60
2022-08-18T15:04:28.637Z,7.07
2022-08-18T15:06:55.942Z,7.50
2022-08-18T15:09:26.853Z,7.40
2022-08-18T15:11:56.255Z,7.18
2022-08-18T15:14:33.261Z,7.60
2022-08-18T15:17:11.734Z,7.60
2022-08-18T15:20:00.251Z,7.60
2022-08-18T15:22:45.974Z,7.22
2022-08-18T15:25:34.330Z,7.90
2022-08-18T15:28:01.591Z,7.70
2022-08-18T15:30:28.599Z,8.00
2022-08-18T15:32:55.576Z,7.35
2022-08-18T15:35:22.603Z,7.80
2022-08-18T15:37:51.446Z,7.97
2022-08-18T15:40:30.900Z,7.60
2022-08-18T15:43:09.809Z,8.02
2022-08-18T15:45:43.093Z,8.10
2022-08-18T15:48:23.960Z,8.05
2022-08-18T15:50:51.383Z,7.38
2022-08-18T15:53:21.450Z,7.78
2022-08-18T15:55:50.085Z,7.95
2022-08-18T15:58:18.283Z,8.00
2022-08-18T16:00:49.196Z,7.57
2022-08-18T16:03:17.926Z,7.60
2022-08-18T16:05:55.525Z,7.65
2022-08-18T16:08:24.926Z,7.65
2022-08-18T16:10:53.404Z,8.32
2022-08-18T16:13:20.379Z,7.38
2022-08-18T16:15:48.372Z,8.05
2022-08-18T16:18:18.058Z,7.75
2022-08-18T16:20:45.490Z,7.55
2022-08-18T16:23:13.734Z,7.88
2022-08-18T16:25:41.950Z,7.43
2022-08-18T16:28:09.858Z,7.70
2022-08-18T16:30:36.626Z,6.97
2022-08-18T16:33:06.647Z,8.02
2022-08-18T16:35:35.474Z,7.65
2022-08-18T16:38:08.744Z,7.22
2022-08-18T16:40:36.916Z,7.47
2022-08-18T16:43:04.957Z,7.20
2022-08-18T16:45:33.379Z,7.30
2022-08-18T16:48:00.661Z,7.57
2022-08-18T16:50:28.183Z,7.20
2022-08-18T16:52:55.292Z,7.47
2022-08-18T16:55:22.107Z,7.50
2022-08-18T16:58:07.387Z,7.13
2022-08-18T17:00:54.553Z,7.50
2022-08-18T17:03:40.034Z,7.40
2022-08-18T17:06:15.943Z,7.23
2022-08-18T17:08:43.432Z,7.30
2022-08-18T17:11:13.956Z,6.77
2022-08-18T17:13:41.964Z,6.70
2022-08-18T17:16:09.621Z,6.83
2022-08-18T17:18:37.102Z,6.63
2022-08-18T17:21:10.187Z,6.70
2022-08-18T17:23:39.062Z,6.70
2022-08-18T17:26:17.922Z,6.60
2022-08-18T17:28:52.638Z,6.50
2022-08-18T17:31:24.572Z,6.67
2022-08-18T17:33:57.190Z,6.30
2022-08-18T17:36:34.153Z,5.90
2022-08-18T17:39:05.189Z,5.73
2022-08-18T17:41:54.140Z,5.90
2022-08-18T17:44:20.848Z,5.97
2022-08-18T17:47:00.577Z,5.77
2022-08-18T17:50:26.425Z,6.30
2022-08-18T17:52:54.209Z,6.03
2022-08-18T17:55:27.077Z,6.20
2022-08-18T17:58:01.646Z,5.93
2022-08-18T18:00:31.269Z,5.47
2022-08-18T18:02:58.762Z,5.80
2022-08-18T18:05:36.639Z,5.67
2022-08-18T18:08:04.000Z,6.60
2022-08-18T18:10:37.724Z,6.37
2022-08-18T18:13:15.986Z,6.07
2022-08-18T18:15:56.187Z,6.70
2022-08-18T18:18:45.159Z,6.13
2022-08-18T18:21:15.781Z,6.60
2022-08-18T18:23:46.223Z,6.00
2022-08-18T18:26:19.644Z,6.30
2022-08-18T18:28:46.604Z,6.37
2022-08-18T18:31:22.340Z,6.57
2022-08-18T18:33:55.860Z,5.63
2022-08-18T18:36:36.672Z,6.17
2022-08-18T18:39:16.373Z,5.97
2022-08-18T18:41:43.641Z,6.37
2022-08-18T18:44:13.227Z,6.53
2022-08-18T18:46:44.249Z,6.53
2022-08-18T18:49:16.979Z,6.77
2022-08-18T18:51:55.828Z,6.43
2022-08-18T18:54:41.361Z,6.47
2022-08-18T18:57:15.851Z,6.93
2022-08-18T19:00:05.021Z,7.10
2022-08-18T19:02:44.263Z,6.67
2022-08-18T19:05:17.528Z,7.27
2022-08-18T19:07:53.186Z,6.93
2022-08-18T19:10:36.967Z,7.70
2022-08-18T19:13:33.089Z,7.30
2022-08-18T19:16:24.689Z,7.60
2022-08-18T19:19:35.026Z,7.10
2022-08-18T19:22:04.270Z,7.60
2022-08-18T19:24:40.727Z,7.43
2022-08-18T19:27:17.448Z,7.50
2022-08-18T19:29:53.480Z,7.43
2022-08-18T19:32:37.314Z,7.60
2022-08-18T19:35:11.956Z,7.20
2022-08-18T19:37:59.385Z,7.87
2022-08-18T19:40:51.828Z,7.37
2022-08-18T19:43:41.392Z,7.47
2022-08-18T19:46:36.924Z,7.53
2022-08-18T19:49:15.893Z,6.90
2022-08-18T19:51:44.623Z,7.73
2022-08-18T19:54:23.604Z,8.17
2022-08-18T19:57:03.701Z,7.43
2022-08-18T19:59:47.836Z,7.37
2022-08-18T20:02:35.033Z,7.57
2022-08-18T20:05:44.174Z,7.70
2022-08-18T20:09:00.478Z,7.77
2022-08-18T20:11:54.757Z,8.00
2022-08-18T20:14:21.865Z,7.30
2022-08-18T20:17:10.637Z,8.10
2022-08-18T20:19:45.390Z,8.20
2022-08-18T20:22:30.249Z,8.20
2022-08-18T20:25:05.711Z,8.30
2022-08-18T20:27:41.191Z,8.70
2022-08-18T20:30:08.706Z,9.33
2022-08-18T20:32:36.312Z,9.30
2022-08-18T20:35:17.871Z,9.33
2022-08-18T20:37:44.984Z,8.83
2022-08-18T20:40:41.144Z,9.13
2022-08-18T20:43:28.718Z,10.37
2022-08-18T20:46:07.663Z,9.70
2022-08-18T20:48:51.561Z,9.40
2022-08-18T20:51:28.647Z,9.10
2022-08-18T20:54:03.849Z,10.13
2022-08-18T20:56:44.430Z,9.60
2022-08-18T20:59:13.889Z,8.83
2022-08-18T21:01:40.701Z,9.47
2022-08-18T21:04:08.269Z,9.50
2022-08-18T21:06:41.988Z,9.63
2022-08-18T21:09:10.372Z,10.10
2022-08-18T21:11:46.983Z,9.70
2022-08-18T21:14:24.712Z,9.97
2022-08-18T21:16:53.956Z,9.93
2022-08-18T21:19:24.933Z,10.50
2022-08-18T21:22:03.940Z,10.20
2022-08-18T21:24:37.061Z,9.93
2022-08-18T21:27:09.938Z,10.30
2022-08-18T21:29:47.083Z,10.00
2022-08-18T21:32:31.486Z,10.07
2022-08-18T21:35:10.892Z,9.93
2022-08-18T21:37:41.435Z,9.80
2022-08-18T21:40:08.554Z,9.80
2022-08-18T21:42:38.745Z,10.77
2022-08-18T21:45:06.853Z,10.63
2022-08-18T21:47:34.732Z,10.77
2022-08-18T21:50:12.982Z,9.97
2022-08-18T21:52:51.581Z,10.67
2022-08-18T21:55:35.705Z,10.67
2022-08-18T21:58:15.569Z,11.07
2022-08-18T22:00:43.359Z,10.13
2022-08-18T22:03:21.231Z,11.23
2022-08-18T22:05:59.488Z,10.90
2022-08-18T22:08:30.846Z,11.17
2022-08-18T22:12:00.868Z,12.10
2022-08-18T22:14:53.635Z,11.77
2022-08-18T22:17:40.113Z,11.07
2022-08-18T22:20:36.583Z,11.63
2022-08-18T22:23:30.726Z,10.27
2022-08-18T22:26:06.666Z,11.70
2022-08-18T22:28:33.725Z,11.00
2022-08-18T22:31:00.444Z,11.67
2022-08-18T22:33:28.205Z,12.03
2022-08-18T22:35:56.338Z,12.87
2022-08-18T22:38:26.804Z,12.67
2022-08-18T22:40:53.567Z,13.30
2022-08-18T22:43:20.239Z,12.60
2022-08-18T22:45:46.906Z,13.40
2022-08-18T22:48:14.253Z,11.70
2022-08-18T22:50:44.794Z,12.00
2022-08-18T22:53:13.577Z,12.67
2022-08-18T22:55:41.429Z,12.87
2022-08-18T22:58:08.837Z,13.60
2022-08-18T23:00:37.206Z,13.93
2022-08-18T23:03:06.444Z,13.43
2022-08-18T23:05:33.181Z,12.40
2022-08-18T23:07:59.870Z,13.67
2022-08-18T23:10:26.573Z,13.97
2022-08-18T23:12:53.397Z,14.90
2022-08-18T23:15:20.791Z,14.93
2022-08-18T23:17:48.023Z,14.37
2022-08-18T23:20:19.167Z,14.83
2022-08-18T23:22:47.967Z,15.57
2022-08-18T23:25:14.863Z,17.00
2022-08-18T23:27:42.742Z,16.20
2022-08-18T23:30:10.152Z,16.87
2022-08-18T23:32:36.894Z,17.03
2022-08-18T23:35:04.185Z,16.37
2022-08-18T23:37:31.516Z,15.50
2022-08-18T23:39:58.622Z,14.27
2022-08-18T23:42:25.448Z,15.13
2022-08-18T23:44:52.143Z,14.83
2022-08-18T23:47:20.835Z,16.80
2022-08-18T23:49:48.327Z,17.00
2022-08-18T23:52:15.299Z,17.57
2022-08-18T23:54:41.999Z,16.93
2022-08-18T23:57:08.790Z,16.63
2022-08-18T23:59:35.575Z,16.70
